createdAt,value
2023-02-22T00:02:29.198Z,4.40
2023-02-22T00:07:30.998Z,4.30
2023-02-22T00:12:32.778Z,4.10
2023-02-22T00:17:34.958Z,4.10
2023-02-22T00:22:36.723Z,4.10
2023-02-22T00:27:38.559Z,4.10
2023-02-22T00:32:40.392Z,4.10
2023-02-22T00:37:42.282Z,4.00
2023-02-22T00:42:44.199Z,4.00
2023-02-22T00:47:49.004Z,3.90
2023-02-22T00:52:51.703Z,3.90
2023-02-22T00:57:54.135Z,3.80
2023-02-22T01:02:56.848Z,3.70
2023-02-22T01:08:00.146Z,3.70
2023-02-22T01:13:08.408Z,3.70
2023-02-22T01:18:11.707Z,3.60
2023-02-22T01:23:14.253Z,3.60
2023-02-22T01:28:16.091Z,3.40
2023-02-22T01:33:17.965Z,3.40
2023-02-22T01:38:19.872Z,3.40
2023-02-22T01:43:30.718Z,3.40
2023-02-22T01:48:44.462Z,3.30
2023-02-22T01:53:52.695Z,3.20
2023-02-22T01:58:59.270Z,3.20
2023-02-22T02:04:05.684Z,3.20
2023-02-22T02:09:23.217Z,3.20
2023-02-22T02:14:24.995Z,3.20
2023-02-22T02:19:41.916Z,3.10
2023-02-22T02:25:11.450Z,3.00
2023-02-22T02:30:56.572Z,3.00
2023-02-22T02:36:15.267Z,3.00
2023-02-22T02:41:25.008Z,3.00
2023-02-22T02:46:45.664Z,3.00
2023-02-22T02:51:52.507Z,3.00
2023-02-22T02:56:57.648Z,3.00
2023-02-22T03:02:07.552Z,2.90
2023-02-22T03:07:38.411Z,2.90
2023-02-22T03:13:21.643Z,2.80
2023-02-22T03:18:47.357Z,2.80
2023-02-22T03:24:11.155Z,2.70
2023-02-22T03:29:16.140Z,2.70
2023-02-22T03:34:26.081Z,2.70
2023-02-22T03:39:31.315Z,2.70
2023-02-22T03:44:37.916Z,2.70
2023-02-22T03:49:51.111Z,2.70
2023-02-22T03:54:54.369Z,2.60
2023-02-22T03:59:56.457Z,2.60
2023-02-22T04:04:58.714Z,2.70
2023-02-22T04:10:02.913Z,2.70
2023-02-22T04:15:07.590Z,2.70
2023-02-22T04:20:11.652Z,2.70
2023-02-22T04:25:22.802Z,2.80
2023-02-22T04:30:25.007Z,2.90
2023-02-22T04:35:28.132Z,2.80
2023-02-22T04:40:30.481Z,2.60
2023-02-22T04:45:32.451Z,2.60
2023-02-22T04:50:35.134Z,2.60
2023-02-22T04:55:37.907Z,2.60
2023-02-22T05:00:39.880Z,2.60
2023-02-22T05:05:42.691Z,2.50
2023-02-22T05:10:44.566Z,2.50
2023-02-22T05:15:46.563Z,2.50
2023-02-22T05:20:48.375Z,2.50
2023-02-22T05:25:50.180Z,2.50
2023-02-22T05:30:52.012Z,2.50
2023-02-22T05:35:56.045Z,2.50
2023-02-22T05:40:57.875Z,2.40
2023-02-22T05:45:59.664Z,2.50
2023-02-22T05:51:01.467Z,2.50
2023-02-22T05:56:03.561Z,2.40
2023-02-22T06:01:05.574Z,2.50
2023-02-22T06:06:07.517Z,2.50
2023-02-22T06:11:09.727Z,2.40
2023-02-22T06:16:11.550Z,2.40
2023-02-22T06:21:13.541Z,2.30
2023-02-22T06:26:18.997Z,2.40
2023-02-22T06:31:20.913Z,2.40
2023-02-22T06:36:22.739Z,2.30
2023-02-22T06:41:24.615Z,2.40
2023-02-22T06:46:26.398Z,2.40
2023-02-22T06:51:28.988Z,2.60
2023-02-22T06:56:30.787Z,2.70
2023-02-22T07:01:32.571Z,2.70
2023-02-22T07:06:34.358Z,2.90
2023-02-22T07:11:39.553Z,3.20
2023-02-22T07:16:41.325Z,3.30
2023-02-22T07:21:43.109Z,3.40
2023-02-22T07:26:44.863Z,3.50
2023-02-22T07:31:46.996Z,3.60
2023-02-22T07:36:49.107Z,3.80
2023-02-22T07:41:50.897Z,4.00
2023-02-22T07:47:03.887Z,4.20
2023-02-22T07:52:07.705Z,4.40
2023-02-22T07:57:09.509Z,4.70
2023-02-22T08:02:16.910Z,4.90
2023-02-22T08:07:18.767Z,5.20
2023-02-22T08:12:20.547Z,5.50
2023-02-22T08:17:22.745Z,5.80
2023-02-22T08:22:24.532Z,6.20
2023-02-22T08:27:28.535Z,6.50
2023-02-22T08:32:30.363Z,6.80
2023-02-22T08:37:32.291Z,7.10
2023-02-22T08:42:34.389Z,7.30
2023-02-22T08:47:36.236Z,7.60
2023-02-22T08:52:38.003Z,7.80
2023-02-22T08:57:39.743Z,8.00
2023-02-22T09:02:41.645Z,8.20
2023-02-22T09:07:44.240Z,8.40
2023-02-22T09:12:46.257Z,8.50
2023-02-22T09:17:48.307Z,8.70
2023-02-22T09:22:50.316Z,9.00
2023-02-22T09:27:53.346Z,9.20
2023-02-22T09:32:58.020Z,9.50
2023-02-22T09:38:02.100Z,9.60
2023-02-22T09:43:45.315Z,9.70
2023-02-22T09:49:19.394Z,10.10
2023-02-22T09:54:34.605Z,10.30
2023-02-22T09:59:42.412Z,10.50
2023-02-22T10:05:05.688Z,10.60
2023-02-22T10:10:13.825Z,10.90
2023-02-22T10:15:35.492Z,10.90
2023-02-22T10:21:02.599Z,10.90
2023-02-22T10:26:26.897Z,11.10
2023-02-22T10:31:37.313Z,11.30
2023-02-22T10:36:39.239Z,11.20
2023-02-22T10:41:55.517Z,11.30
2023-02-22T10:47:00.249Z,11.40
2023-02-22T10:52:03.948Z,11.50
2023-02-22T10:57:05.836Z,11.60
2023-02-22T11:02:21.476Z,11.80
2023-02-22T11:07:31.075Z,11.90
2023-02-22T11:12:42.354Z,12.00
2023-02-22T11:17:46.337Z,12.20
2023-02-22T11:23:01.121Z,12.10
2023-02-22T11:28:18.792Z,12.20
2023-02-22T11:33:24.215Z,12.40
2023-02-22T11:38:29.445Z,12.40
2023-02-22T11:43:31.335Z,12.50
2023-02-22T11:48:36.821Z,12.60
2023-02-22T11:54:19.450Z,12.70
2023-02-22T11:59:39.090Z,12.90
2023-02-22T12:05:03.891Z,12.90
2023-02-22T12:10:09.012Z,13.00
2023-02-22T12:15:29.071Z,13.20
2023-02-22T12:20:40.990Z,13.00
2023-02-22T12:26:10.769Z,13.10
2023-02-22T12:31:35.341Z,13.00
2023-02-22T12:36:46.710Z,13.30
2023-02-22T12:41:54.447Z,13.30
2023-02-22T12:46:59.537Z,13.50
2023-02-22T12:52:21.916Z,13.70
2023-02-22T12:57:48.876Z,13.90
2023-02-22T13:03:17.750Z,13.80
2023-02-22T13:08:28.503Z,13.70
2023-02-22T13:13:35.772Z,13.60
2023-02-22T13:18:57.977Z,13.70
2023-02-22T13:24:21.023Z,13.80
2023-02-22T13:29:39.930Z,13.80
2023-02-22T13:35:10.163Z,13.90
2023-02-22T13:40:20.763Z,14.00
2023-02-22T13:45:44.649Z,13.90
2023-02-22T13:51:08.131Z,13.80
2023-02-22T13:56:11.611Z,13.90
2023-02-22T14:01:46.886Z,13.90
2023-02-22T14:06:49.125Z,13.90
2023-02-22T14:11:54.221Z,13.80
2023-02-22T14:17:25.240Z,13.80
2023-02-22T14:22:30.393Z,13.70
2023-02-22T14:27:42.136Z,13.70
2023-02-22T14:32:44.078Z,13.70
2023-02-22T14:37:54.433Z,13.70
2023-02-22T14:43:13.326Z,13.50
2023-02-22T14:48:39.295Z,13.50
2023-02-22T14:53:45.835Z,13.40
2023-02-22T14:58:54.938Z,13.30
2023-02-22T15:04:06.136Z,13.20
2023-02-22T15:09:28.915Z,13.10
2023-02-22T15:14:37.621Z,12.90
2023-02-22T15:19:41.948Z,12.80
2023-02-22T15:24:44.452Z,12.70
2023-02-22T15:29:46.818Z,12.60
2023-02-22T15:34:48.739Z,12.40
2023-02-22T15:39:59.121Z,12.30
2023-02-22T15:45:01.231Z,12.10
2023-02-22T15:50:17.273Z,11.90
2023-02-22T15:55:24.273Z,11.70
2023-02-22T16:00:35.892Z,11.60
2023-02-22T16:05:55.579Z,11.40
2023-02-22T16:11:03.914Z,11.20
2023-02-22T16:16:22.394Z,11.00
2023-02-22T16:21:24.155Z,10.90
2023-02-22T16:26:34.954Z,10.70
2023-02-22T16:31:39.515Z,10.50
2023-02-22T16:36:46.991Z,10.40
2023-02-22T16:41:50.140Z,10.30
2023-02-22T16:46:52.790Z,10.20
2023-02-22T16:51:58.790Z,10.00
2023-02-22T16:57:03.903Z,9.90
2023-02-22T17:02:07.653Z,9.70
2023-02-22T17:07:10.039Z,9.50
2023-02-22T17:12:11.879Z,9.30
2023-02-22T17:17:14.665Z,9.20
2023-02-22T17:22:19.636Z,7.90
2023-02-22T17:27:21.402Z,8.90
2023-02-22T17:32:23.250Z,8.80
2023-02-22T17:37:25.630Z,8.70
2023-02-22T17:42:27.461Z,8.60
2023-02-22T17:47:29.241Z,8.60
2023-02-22T17:52:31.083Z,8.40
2023-02-22T17:57:32.888Z,8.30
2023-02-22T18:02:34.721Z,8.30
2023-02-22T18:07:37.224Z,8.40
2023-02-22T18:12:39.764Z,8.30
2023-02-22T18:17:41.591Z,8.40
2023-02-22T18:22:44.442Z,8.30
2023-02-22T18:27:46.233Z,8.30
2023-02-22T18:32:48.045Z,8.20
2023-02-22T18:37:49.909Z,8.10
2023-02-22T18:42:51.684Z,8.10
2023-02-22T18:47:53.427Z,8.00
2023-02-22T18:52:55.415Z,8.00
2023-02-22T18:57:57.193Z,7.90
2023-02-22T19:03:00.905Z,7.90
2023-02-22T19:08:03.420Z,7.80
2023-02-22T19:13:10.581Z,7.80
2023-02-22T19:18:13.150Z,7.80
2023-02-22T19:23:14.913Z,7.70
2023-02-22T19:28:16.775Z,7.60
2023-02-22T19:33:18.674Z,7.60
2023-02-22T19:38:20.511Z,7.60
2023-02-22T19:43:22.368Z,7.60
2023-02-22T19:48:24.121Z,7.50
2023-02-22T19:53:25.867Z,7.50
2023-02-22T19:58:27.940Z,7.40
2023-02-22T20:03:34.887Z,7.30
2023-02-22T20:08:41.872Z,7.30
2023-02-22T20:13:44.674Z,7.20
2023-02-22T20:23:49.684Z,7.20
2023-02-22T20:28:52.320Z,7.10
2023-02-22T20:33:56.410Z,7.10
2023-02-22T20:39:00.201Z,7.10
2023-02-22T20:44:03.175Z,7.10
2023-02-22T20:49:11.093Z,7.10
2023-02-22T20:54:13.247Z,7.10
2023-02-22T20:59:18.603Z,7.10
2023-02-22T21:04:23.596Z,7.10
2023-02-22T21:09:25.496Z,7.10
2023-02-22T21:14:28.351Z,7.00
2023-02-22T21:19:32.112Z,6.90
2023-02-22T21:24:36.104Z,6.90
2023-02-22T21:29:39.269Z,6.80
2023-02-22T21:34:41.124Z,6.80
2023-02-22T21:39:47.467Z,6.80
2023-02-22T21:44:54.333Z,6.70
2023-02-22T21:49:56.107Z,6.60
2023-02-22T21:54:58.034Z,6.50
2023-02-22T21:59:59.851Z,6.40
2023-02-22T22:05:01.686Z,6.40
2023-02-22T22:10:06.813Z,6.20
2023-02-22T22:15:09.314Z,6.20
2023-02-22T22:20:16.647Z,6.10
2023-02-22T22:25:19.046Z,6.00
2023-02-22T22:30:20.988Z,5.90
2023-02-22T22:35:22.771Z,5.80
2023-02-22T22:40:24.575Z,5.80
2023-02-22T22:45:26.372Z,5.70
2023-02-22T22:50:28.801Z,5.60
2023-02-22T22:55:30.645Z,5.60
2023-02-22T23:00:32.515Z,5.50
2023-02-22T23:05:40.057Z,5.50
2023-02-22T23:10:42.027Z,5.40
2023-02-22T23:15:47.703Z,5.40
2023-02-22T23:20:55.064Z,5.30
2023-02-22T23:26:11.312Z,5.30
2023-02-22T23:31:15.824Z,5.30
2023-02-22T23:36:19.197Z,5.30
2023-02-22T23:41:22.312Z,5.30
2023-02-22T23:46:26.913Z,5.30
2023-02-22T23:51:39.023Z,5.20
2023-02-22T23:56:47.226Z,5.20
